Time;durP1;ratioP1;P1;durP2;ratioP2;P2;SDS_P1;SDS_P2;PMS_P1;PMS_P2;Temp;Humidity;BMP_temperature;BMP_pressure;BME280_temperature;BME280_humidity;BME280_pressure;Samples;Min_cycle;Max_cycle;Signal;HPM_P1;HPM_P2
2022/05/13 00:00:53;;;;;;;10.45;3.25;;;12.20;99.90;;;;;;5055752;28;20452;-81
2022/05/13 00:03:19;;;;;;;16.02;4.15;;;12.10;99.90;;;;;;5055708;28;20039;-81
2022/05/13 00:05:44;;;;;;;9.52;3.03;;;12.20;99.90;;;;;;5055660;28;20023;-80
2022/05/13 00:08:10;;;;;;;16.20;3.85;;;12.20;99.90;;;;;;5055500;28;20061;-80
2022/05/13 00:10:35;;;;;;;11.32;3.10;;;12.20;99.90;;;;;;5055654;28;20029;-80
2022/05/13 00:13:01;;;;;;;15.15;3.03;;;12.20;99.90;;;;;;5055308;28;20053;-80
2022/05/13 00:15:29;;;;;;;12.85;2.90;;;12.20;99.90;;;;;;5055289;28;20032;-80
2022/05/13 00:17:55;;;;;;;14.70;3.92;;;12.20;99.90;;;;;;5053837;28;20412;-80
2022/05/13 00:20:22;;;;;;;12.77;3.38;;;12.20;99.90;;;;;;5053951;28;20025;-80
2022/05/13 00:22:50;;;;;;;15.80;3.03;;;12.20;99.90;;;;;;5055208;28;20040;-79
2022/05/13 00:25:18;;;;;;;13.38;3.45;;;12.20;99.90;;;;;;5055634;28;20025;-80
2022/05/13 00:27:43;;;;;;;12.52;2.83;;;12.20;99.90;;;;;;5055156;28;20159;-80
2022/05/13 00:30:10;;;;;;;13.98;3.40;;;12.20;99.90;;;;;;5055179;28;20056;-80
2022/05/13 00:32:36;;;;;;;17.92;3.10;;;12.20;99.90;;;;;;5055065;28;20037;-80
2022/05/13 00:35:03;;;;;;;14.73;2.97;;;12.20;99.90;;;;;;5037003;28;20017;-80
2022/05/13 00:37:28;;;;;;;12.35;3.17;;;12.20;99.90;;;;;;5054885;28;20468;-81
2022/05/13 00:39:54;;;;;;;16.00;3.55;;;12.20;99.90;;;;;;5054805;28;20025;-81
2022/05/13 00:42:22;;;;;;;11.32;3.10;;;12.20;99.90;;;;;;5054796;28;20075;-81
2022/05/13 00:44:48;;;;;;;10.98;3.30;;;12.20;99.90;;;;;;5054845;28;20533;-81
2022/05/13 00:47:13;;;;;;;19.17;3.30;;;12.20;99.90;;;;;;5054760;28;20021;-80
2022/05/13 00:49:39;;;;;;;15.98;3.85;;;12.10;99.90;;;;;;5054680;28;20033;-81
2022/05/13 00:52:08;;;;;;;10.73;3.20;;;12.10;99.90;;;;;;5054558;28;20075;-80
2022/05/13 00:54:35;;;;;;;18.90;3.58;;;12.20;99.90;;;;;;5054879;28;20529;-81
2022/05/13 00:57:01;;;;;;;17.38;3.50;;;12.20;99.90;;;;;;5054575;28;20013;-81
2022/05/13 00:59:31;;;;;;;18.80;3.50;;;12.20;99.90;;;;;;5054439;28;20068;-81
2022/05/13 01:01:57;;;;;;;16.08;3.38;;;12.10;99.90;;;;;;5054492;28;20078;-81
2022/05/13 01:04:24;;;;;;;13.90;4.78;;;12.20;99.90;;;;;;5054487;28;20028;-81
2022/05/13 01:06:54;;;;;;;16.48;3.85;;;12.20;99.90;;;;;;5054730;28;20025;-81
2022/05/13 01:09:21;;;;;;;16.38;3.60;;;12.20;99.90;;;;;;5054364;28;20052;-81
2022/05/13 01:11:52;;;;;;;16.80;4.05;;;12.20;99.90;;;;;;5054285;28;20036;-81
2022/05/13 01:14:23;;;;;;;13.30;3.65;;;12.20;99.90;;;;;;5054748;28;20028;-81
2022/05/13 01:19:33;;;;;;;16.85;4.50;;;12.20;99.90;;;;;;5044546;28;20562;-81
2022/05/13 01:22:12;;;;;;;17.13;3.95;;;12.20;99.90;;;;;;5034397;28;20108;-80
2022/05/13 01:24:37;;;;;;;20.80;4.15;;;12.20;99.90;;;;;;5034016;28;20116;-81
2022/05/13 01:27:03;;;;;;;17.80;4.25;;;12.20;99.90;;;;;;5034428;28;20104;-81
2022/05/13 01:29:29;;;;;;;20.90;4.70;;;12.20;99.90;;;;;;5034828;28;20084;-81
2022/05/13 01:31:54;;;;;;;23.42;4.90;;;12.20;99.90;;;;;;5035326;28;20373;-81
2022/05/13 01:34:20;;;;;;;22.40;4.95;;;12.20;99.90;;;;;;5035203;28;20484;-81
2022/05/13 01:36:55;;;;;;;15.70;4.00;;;12.20;99.90;;;;;;5039588;28;20022;-81
2022/05/13 01:39:21;;;;;;;18.02;4.45;;;12.20;99.90;;;;;;5035415;28;20603;-81
2022/05/13 01:41:48;;;;;;;18.95;4.60;;;12.20;99.90;;;;;;5054068;28;20538;-81
2022/05/13 01:44:14;;;;;;;16.83;4.65;;;12.20;99.90;;;;;;5048505;28;20103;-81
2022/05/13 01:46:39;;;;;;;19.38;4.18;;;12.20;99.90;;;;;;5034255;28;20025;-81
2022/05/13 01:49:05;;;;;;;18.88;5.30;;;12.10;99.90;;;;;;5033780;28;20034;-81
2022/05/13 01:51:30;;;;;;;12.48;3.47;;;12.10;99.90;;;;;;5033736;28;20022;-81
2022/05/13 01:53:56;;;;;;;17.30;4.65;;;12.10;99.90;;;;;;5033831;28;20056;-81
2022/05/13 01:57:05;;;;;;;21.38;4.50;;;12.10;99.90;;;;;;5033574;28;20052;-81
2022/05/13 01:59:31;;;;;;;14.93;4.25;;;12.20;99.90;;;;;;5033922;28;20029;-81
2022/05/13 02:05:19;;;;;;;18.63;3.88;;;12.20;99.90;;;;;;5033650;28;20496;-81
2022/05/13 02:07:44;;;;;;;14.30;3.97;;;12.10;99.90;;;;;;5032348;28;20052;-81
2022/05/13 02:10:10;;;;;;;19.45;4.05;;;12.10;99.90;;;;;;5033505;28;20396;-81
2022/05/13 02:12:35;;;;;;;16.02;4.07;;;12.10;99.90;;;;;;5033597;28;20076;-81
2022/05/13 02:15:01;;;;;;;12.05;3.22;;;12.10;99.90;;;;;;5033696;28;20473;-81
2022/05/13 02:17:27;;;;;;;16.17;3.95;;;12.20;99.90;;;;;;5033402;28;20058;-81
2022/05/13 02:19:52;;;;;;;14.85;3.30;;;12.20;99.90;;;;;;5033664;28;20028;-81
2022/05/13 02:22:18;;;;;;;16.58;3.78;;;12.20;99.90;;;;;;5033961;28;20029;-80
2022/05/13 02:24:43;;;;;;;15.00;3.53;;;12.20;99.90;;;;;;5046615;28;20028;-81
2022/05/13 02:27:09;;;;;;;12.13;2.63;;;12.20;99.90;;;;;;5054088;28;20029;-80
2022/05/13 02:29:34;;;;;;;8.52;2.88;;;12.20;99.90;;;;;;5053434;28;20502;-81
2022/05/13 02:32:00;;;;;;;20.92;3.47;;;12.20;99.90;;;;;;5053597;28;20074;-81
2022/05/13 02:34:25;;;;;;;10.70;3.22;;;12.20;99.40;;;;;;5035552;28;20025;-81
2022/05/13 02:36:51;;;;;;;17.42;3.80;;;12.20;96.70;;;;;;5055471;28;20074;-81
2022/05/13 02:39:16;;;;;;;13.65;3.70;;;12.20;98.10;;;;;;5057711;28;20036;-81
2022/05/13 02:41:44;;;;;;;7.47;2.78;;;12.20;93.00;;;;;;5057671;28;20044;-81
2022/05/13 02:44:10;;;;;;;15.25;3.25;;;12.20;96.80;;;;;;5057693;28;20024;-81
2022/05/13 02:46:36;;;;;;;13.15;3.80;;;12.20;90.30;;;;;;5057514;28;20353;-81
2022/05/13 02:49:02;;;;;;;15.23;3.28;;;12.20;62.80;;;;;;5057265;28;20472;-81
2022/05/13 02:51:28;;;;;;;10.82;2.80;;;12.20;95.50;;;;;;5056995;28;20095;-81
2022/05/13 02:53:54;;;;;;;12.95;2.75;;;12.20;75.10;;;;;;5057001;28;20028;-81
2022/05/13 02:56:21;;;;;;;11.10;3.78;;;12.20;76.00;;;;;;5057278;28;20033;-81
2022/05/13 02:58:47;;;;;;;11.35;3.00;;;12.20;66.20;;;;;;5056812;28;20104;-81
2022/05/13 03:01:14;;;;;;;10.73;2.70;;;12.20;52.90;;;;;;5056929;28;20078;-81
2022/05/13 03:03:43;;;;;;;12.27;3.15;;;12.20;68.10;;;;;;5056854;28;20081;-81
2022/05/13 03:06:09;;;;;;;11.35;2.83;;;12.20;54.90;;;;;;5056809;28;20013;-81
2022/05/13 03:08:35;;;;;;;7.00;3.25;;;12.20;55.70;;;;;;5056789;28;20365;-81
2022/05/13 03:11:06;;;;;;;8.85;2.78;;;12.20;64.60;;;;;;5056604;28;20483;-81
2022/05/13 03:13:33;;;;;;;10.55;2.70;;;12.20;38.90;;;;;;5057046;28;20353;-81
2022/05/13 03:16:07;;;;;;;7.95;2.47;;;12.20;26.90;;;;;;5056498;28;20475;-81
2022/05/13 03:18:33;;;;;;;7.03;2.40;;;12.30;7.40;;;;;;5020735;28;20383;-81
2022/05/13 03:20:58;;;;;;;8.38;2.65;;;12.20;8.50;;;;;;5016804;28;20487;-81
2022/05/13 03:23:24;;;;;;;5.13;2.33;;;12.30;1.00;;;;;;5016794;28;20029;-81
2022/05/13 03:25:50;;;;;;;13.50;3.70;;;12.30;1.00;;;;;;5016826;28;20037;-81
2022/05/13 03:28:15;;;;;;;7.22;2.40;;;12.20;1.00;;;;;;5016808;28;20031;-81
2022/05/13 03:30:41;;;;;;;5.07;1.95;;;12.20;1.00;;;;;;5016921;28;20478;-81
2022/05/13 03:33:06;;;;;;;5.30;2.10;;;12.30;1.00;;;;;;5016682;28;20018;-81
2022/05/13 03:35:32;;;;;;;5.97;1.83;;;12.20;1.00;;;;;;5016372;28;20064;-81
2022/05/13 03:37:57;;;;;;;5.88;1.95;;;12.20;1.00;;;;;;5016619;28;20440;-81
2022/05/13 03:40:23;;;;;;;6.68;2.20;;;12.30;1.00;;;;;;5016713;28;20037;-81
2022/05/13 03:42:49;;;;;;;6.03;2.47;;;12.30;1.00;;;;;;5016535;28;20389;-81
2022/05/13 03:45:17;;;;;;;5.80;2.00;;;12.20;1.00;;;;;;5016412;28;20075;-81
2022/05/13 03:47:44;;;;;;;5.80;2.20;;;12.20;1.00;;;;;;5016097;28;20022;-80
2022/05/13 03:50:10;;;;;;;4.93;2.08;;;12.20;1.00;;;;;;5016619;28;20026;-80
2022/05/13 03:52:36;;;;;;;7.60;2.53;;;12.30;1.00;;;;;;5015094;28;20033;-81
2022/05/13 03:55:03;;;;;;;5.93;2.35;;;12.30;1.00;;;;;;5016086;28;20022;-80
2022/05/13 03:57:28;;;;;;;6.75;2.80;;;12.30;1.00;;;;;;5016090;28;20405;-80
2022/05/13 03:59:54;;;;;;;9.63;2.30;;;12.30;1.00;;;;;;5015870;28;20485;-81
2022/05/13 04:02:19;;;;;;;7.05;2.10;;;12.30;1.00;;;;;;5015894;28;20036;-80
2022/05/13 04:10:13;;;;;;;7.75;2.03;;;12.30;1.00;;;;;;5016629;28;20053;-79
2022/05/13 04:18:06;;;;;;;11.05;2.40;;;12.30;1.00;;;;;;5037654;28;20462;-81
2022/05/13 04:20:34;;;;;;;4.28;1.90;;;12.20;1.00;;;;;;5055233;28;20032;-80
2022/05/13 04:23:00;;;;;;;5.50;1.70;;;12.20;1.00;;;;;;5055843;28;20035;-78
2022/05/13 04:25:26;;;;;;;8.02;1.75;;;12.20;1.00;;;;;;5055473;28;20021;-79
2022/05/13 04:27:52;;;;;;;6.65;1.60;;;12.20;1.00;;;;;;5055393;28;20032;-79
2022/05/13 04:30:18;;;;;;;4.88;1.90;;;12.30;1.00;;;;;;5055018;28;20021;-80
2022/05/13 04:32:43;;;;;;;5.95;1.95;;;12.20;1.00;;;;;;5055189;28;20087;-80
2022/05/13 04:35:09;;;;;;;4.95;1.65;;;12.30;1.00;;;;;;5053563;28;20068;-80
2022/05/13 04:37:37;;;;;;;8.10;2.17;;;12.30;1.00;;;;;;5035124;28;20022;-80
2022/05/13 04:40:03;;;;;;;9.70;2.28;;;12.40;1.00;;;;;;5040351;28;20021;-79
2022/05/13 04:45:12;;;;;;;10.20;1.88;;;12.40;1.00;;;;;;5035729;28;20087;-79
2022/05/13 04:50:22;;;;;;;9.82;1.73;;;12.40;1.00;;;;;;5054845;28;20032;-80
2022/05/13 04:52:48;;;;;;;7.90;2.00;;;12.50;1.00;;;;;;5054836;28;20017;-79
2022/05/13 04:55:14;;;;;;;7.15;1.65;;;12.60;1.00;;;;;;5054800;28;20467;-80
2022/05/13 04:57:39;;;;;;;4.22;1.80;;;12.70;1.00;;;;;;5054494;28;20025;-79
2022/05/13 05:00:09;;;;;;;5.55;1.80;;;12.80;1.00;;;;;;5053766;28;20032;-79
2022/05/13 05:02:35;;;;;;;;;;;12.70;1.00;;;;;;5054894;28;20029;-80
2022/05/13 05:05:01;;;;;;;5.97;1.65;;;12.80;1.00;;;;;;5054521;28;19905;-79
2022/05/13 05:07:26;;;;;;;4.70;1.98;;;12.90;1.00;;;;;;5054443;28;20476;-80
2022/05/13 05:09:52;;;;;;;8.57;2.20;;;13.10;1.00;;;;;;5054577;28;20361;-79
2022/05/13 05:12:18;;;;;;;3.67;1.73;;;13.10;1.00;;;;;;5054332;28;20025;-80
2022/05/13 05:14:44;;;;;;;7.38;2.10;;;13.00;1.00;;;;;;5054093;28;20037;-80
2022/05/13 05:17:10;;;;;;;8.88;2.03;;;13.00;1.00;;;;;;5054329;28;20068;-80
2022/05/13 05:19:35;;;;;;;5.72;1.58;;;13.10;1.00;;;;;;5054291;28;20079;-80
2022/05/13 05:22:01;;;;;;;8.95;1.60;;;13.10;1.00;;;;;;5054297;28;20108;-79
2022/05/13 05:24:32;;;;;;;9.43;2.13;;;13.30;1.00;;;;;;5045583;28;20100;-79
2022/05/13 05:26:58;;;;;;;6.95;1.98;;;13.40;1.00;;;;;;5034363;28;20086;-80
2022/05/13 05:29:24;;;;;;;4.95;1.45;;;13.50;1.00;;;;;;5034154;28;20059;-80
2022/05/13 05:31:49;;;;;;;8.63;1.67;;;13.50;1.00;;;;;;5034118;28;20425;-80
2022/05/13 05:34:17;;;;;;;7.57;2.53;;;13.60;1.00;;;;;;5034089;28;20021;-80
2022/05/13 05:36:43;;;;;;;7.53;2.08;;;13.70;1.00;;;;;;5016420;28;20167;-80
2022/05/13 05:39:09;;;;;;;7.45;1.67;;;13.80;1.00;;;;;;5034564;28;20079;-80
2022/05/13 05:41:34;;;;;;;9.30;1.83;;;13.90;1.00;;;;;;5034118;28;20096;-80
2022/05/13 05:44:00;;;;;;;8.32;1.42;;;13.90;1.00;;;;;;5033714;28;20084;-80
2022/05/13 05:46:26;;;;;;;7.80;1.58;;;14.00;1.00;;;;;;5036924;28;20017;-79
2022/05/13 05:48:51;;;;;;;7.68;1.20;;;14.10;1.00;;;;;;5033719;28;20032;-80
2022/05/13 05:51:17;;;;;;;6.90;1.38;;;14.10;1.00;;;;;;5047655;28;20062;-80
2022/05/13 05:59:12;;;;;;;3.20;1.10;;;14.50;1.00;;;;;;5033989;28;20056;-80
2022/05/13 06:01:37;;;;;;;6.15;1.30;;;14.60;1.00;;;;;;5033651;28;20029;-80
2022/05/13 06:04:05;;;;;;;3.83;1.10;;;14.50;1.00;;;;;;5033666;28;20079;-80
2022/05/13 06:06:30;;;;;;;4.93;1.30;;;14.50;1.00;;;;;;5033875;28;20013;-80
2022/05/13 06:08:58;;;;;;;4.35;1.20;;;14.40;1.00;;;;;;5033459;28;20033;-80
2022/05/13 06:11:24;;;;;;;4.95;1.17;;;14.50;1.00;;;;;;5032045;28;20026;-80
2022/05/13 06:13:54;;;;;;;5.95;1.52;;;14.50;1.00;;;;;;5034179;28;20071;-80
2022/05/13 06:16:24;;;;;;;6.32;1.38;;;14.60;1.00;;;;;;5033451;28;20018;-80
2022/05/13 06:18:50;;;;;;;;;;;14.50;1.00;;;;;;5034523;28;20047;-80
2022/05/13 06:21:16;;;;;;;4.15;1.15;;;14.80;1.00;;;;;;5033636;28;19912;-80
2022/05/13 06:23:41;;;;;;;8.50;1.55;;;15.00;1.00;;;;;;5033596;28;20029;-79
2022/05/13 06:26:07;;;;;;;2.85;1.15;;;15.30;1.00;;;;;;5033329;28;20025;-80
2022/05/13 06:28:33;;;;;;;6.88;1.63;;;15.40;1.00;;;;;;5033354;28;20108;-80
2022/05/13 06:30:59;;;;;;;4.78;1.20;;;15.70;1.00;;;;;;5033882;28;20033;-80
2022/05/13 06:33:25;;;;;;;4.90;1.42;;;15.80;99.90;;;;;;5033368;28;20029;-80
2022/05/13 06:35:51;;;;;;;4.75;1.10;;;16.00;99.90;;;;;;5033797;28;20492;-80
2022/05/13 06:38:22;;;;;;;6.55;1.42;;;16.00;99.90;;;;;;5041431;28;20035;-80
2022/05/13 06:40:49;;;;;;;6.40;1.63;;;16.40;99.90;;;;;;5052889;28;20036;-80
2022/05/13 06:43:15;;;;;;;7.10;1.38;;;16.50;99.90;;;;;;5052956;28;20044;-80
2022/05/13 06:45:41;;;;;;;6.32;1.30;;;16.90;99.90;;;;;;5048857;28;20022;-80
2022/05/13 06:48:07;;;;;;;7.68;1.20;;;17.40;99.90;;;;;;5035532;28;20033;-80
2022/05/13 06:50:33;;;;;;;10.70;2.33;;;18.20;99.90;;;;;;5051890;28;20032;-80
2022/05/13 06:52:59;;;;;;;3.72;1.25;;;18.70;99.90;;;;;;5034893;28;20087;-80
2022/05/13 06:55:25;;;;;;;5.05;1.23;;;19.60;99.90;;;;;;5052561;28;20017;-80
2022/05/13 06:57:51;;;;;;;6.88;1.33;;;22.50;99.90;;;;;;5034703;28;20025;-81
2022/05/13 07:00:17;;;;;;;4.50;1.40;;;22.40;99.90;;;;;;5052706;28;20376;-80
2022/05/13 07:02:43;;;;;;;4.53;1.20;;;21.10;99.90;;;;;;5052720;28;20029;-81
2022/05/13 07:05:10;;;;;;;5.63;0.95;;;23.10;99.90;;;;;;5052875;28;20025;-81
2022/05/13 07:07:36;;;;;;;6.28;1.45;;;26.50;99.90;;;;;;5052659;28;20023;-81
2022/05/13 07:10:03;;;;;;;4.68;1.33;;;27.00;99.90;;;;;;5052417;28;20021;-81
2022/05/13 07:12:29;;;;;;;1.98;0.70;;;29.50;99.90;;;;;;5052450;28;20033;-81
2022/05/13 07:14:55;;;;;;;9.25;1.60;;;25.30;99.90;;;;;;5052712;28;20021;-82
2022/05/13 07:17:21;;;;;;;5.28;1.17;;;28.00;99.90;;;;;;5052123;28;20393;-81
2022/05/13 07:19:47;;;;;;;5.10;1.38;;;26.70;99.90;;;;;;5052422;28;20111;-81
2022/05/13 07:22:13;;;;;;;6.97;1.30;;;26.60;99.90;;;;;;5053810;28;20408;-82
2022/05/13 07:24:38;;;;;;;6.75;1.55;;;28.40;99.90;;;;;;5055890;28;20025;-82
2022/05/13 07:27:05;;;;;;;4.22;1.02;;;28.30;99.90;;;;;;5055992;28;20112;-82
2022/05/13 07:29:31;;;;;;;5.50;1.30;;;27.00;99.90;;;;;;5056024;28;20075;-82
2022/05/13 07:31:56;;;;;;;3.35;1.20;;;32.40;99.90;;;;;;5037893;28;20878;-81
2022/05/13 07:34:22;;;;;;;4.53;1.38;;;32.90;99.90;;;;;;5055947;28;20461;-81
2022/05/13 07:36:48;;;;;;;3.58;1.10;;;30.80;99.90;;;;;;5056006;28;20070;-81
2022/05/13 07:41:59;;;;;;;5.32;1.10;;;26.10;99.90;;;;;;5055489;28;20032;-81
2022/05/13 07:44:24;;;;;;;2.83;1.20;;;28.70;99.90;;;;;;5055285;28;20064;-81
2022/05/13 07:46:51;;;;;;;6.80;1.25;;;31.90;99.90;;;;;;5041863;28;20021;-81
2022/05/13 07:49:16;;;;;;;3.88;0.98;;;31.80;99.90;;;;;;5055939;28;20112;-81
2022/05/13 07:51:42;;;;;;;3.53;1.42;;;27.40;99.90;;;;;;5055847;28;20710;-81
2022/05/13 07:54:08;;;;;;;6.28;1.48;;;28.00;99.90;;;;;;5056013;28;20028;-82
2022/05/13 07:56:34;;;;;;;5.15;1.20;;;30.70;99.90;;;;;;5055930;28;20021;-81
2022/05/13 07:59:02;;;;;;;4.25;1.17;;;33.00;99.90;;;;;;5055615;28;20063;-81
2022/05/13 08:01:28;;;;;;;5.60;1.58;;;36.10;99.90;;;;;;5056458;28;20017;-82
2022/05/13 08:03:56;;;;;;;7.47;1.40;;;33.40;99.90;;;;;;5055990;28;20025;-82
2022/05/13 08:06:22;;;;;;;4.85;1.17;;;36.30;99.90;;;;;;5056285;28;20017;-82
2022/05/13 08:08:53;;;;;;;6.15;1.70;;;36.50;99.90;;;;;;5055758;28;20024;-82
2022/05/13 08:11:19;;;;;;;5.32;1.20;;;37.60;99.90;;;;;;5056163;28;20383;-82
2022/05/13 08:13:45;;;;;;;5.80;1.30;;;37.80;99.90;;;;;;5056061;28;20035;-82
2022/05/13 08:16:15;;;;;;;3.67;1.13;;;35.80;99.90;;;;;;5055487;28;20100;-82
2022/05/13 08:18:42;;;;;;;7.50;1.30;;;35.70;99.90;;;;;;5055553;28;20080;-82
2022/05/13 08:21:08;;;;;;;4.45;1.40;;;37.10;99.90;;;;;;5055455;28;20035;-82
2022/05/13 08:23:34;;;;;;;4.97;1.25;;;37.60;99.90;;;;;;5055518;28;20021;-82
2022/05/13 08:26:08;;;;;;;8.90;1.52;;;37.60;99.90;;;;;;5055330;28;20021;-82
2022/05/13 08:28:34;;;;;;;7.30;1.70;;;38.10;99.90;;;;;;5055894;28;20025;-83
2022/05/13 08:31:00;;;;;;;7.88;1.45;;;35.80;99.90;;;;;;5055269;28;20155;-83
2022/05/13 08:33:26;;;;;;;4.05;1.60;;;34.30;99.90;;;;;;5055224;28;20432;-83
2022/05/13 08:35:56;;;;;;;7.45;1.50;;;32.20;99.90;;;;;;5055138;28;20021;-83
2022/05/13 08:38:24;;;;;;;7.13;1.67;;;31.70;99.90;;;;;;5055225;28;20021;-82
2022/05/13 08:40:50;;;;;;;5.03;1.70;;;32.10;99.90;;;;;;5054780;28;20032;-83
2022/05/13 08:43:40;;;;;;;6.10;1.55;;;33.70;99.90;;;;;;5055203;28;20021;-82
2022/05/13 08:46:40;;;;;;;4.93;1.58;;;33.80;99.90;;;;;;5055141;28;20021;-82
2022/05/13 08:49:31;;;;;;;4.20;1.15;;;30.50;99.90;;;;;;5055073;28;20033;-81
2022/05/13 08:54:56;;;;;;;;;;;35.80;99.90;;;;;;5055269;28;20032;-82
2022/05/13 08:57:27;;;;;;;6.07;1.58;;;36.00;99.90;;;;;;5054831;28;19904;-83
2022/05/13 08:59:59;;;;;;;4.40;1.50;;;35.50;99.90;;;;;;5054824;28;20033;-82
2022/05/13 09:02:34;;;;;;;6.35;1.67;;;35.00;99.90;;;;;;5054870;28;20056;-82
2022/05/13 09:05:04;;;;;;;5.90;1.20;;;33.30;99.90;;;;;;5054676;28;20434;-82
2022/05/13 09:07:30;;;;;;;7.40;1.83;;;34.00;99.90;;;;;;5054766;28;20052;-83
2022/05/13 09:09:59;;;;;;;3.67;1.33;;;35.00;99.90;;;;;;5054518;28;20060;-82
2022/05/13 09:12:31;;;;;;;8.80;1.92;;;34.40;99.90;;;;;;5054535;28;20083;-82
2022/05/13 09:15:05;;;;;;;5.63;1.58;;;31.50;99.90;;;;;;5054690;28;20024;-82
2022/05/13 09:17:37;;;;;;;5.97;1.40;;;32.50;99.90;;;;;;5053222;28;20057;-82
2022/05/13 09:20:15;;;;;;;4.72;1.30;;;35.50;99.90;;;;;;5054409;28;20492;-82
2022/05/13 09:22:46;;;;;;;4.90;1.55;;;36.10;99.90;;;;;;5054106;28;20472;-82
2022/05/13 09:25:49;;;;;;;5.20;1.70;;;36.10;99.90;;;;;;5054134;28;20692;-82
2022/05/13 09:31:42;;;;;;;4.63;1.70;;;35.50;99.90;;;;;;5054713;28;20084;-82
2022/05/13 09:34:34;;;;;;;6.20;1.80;;;35.80;99.90;;;;;;5054042;28;20024;-82
2022/05/13 09:37:10;;;;;;;6.57;1.80;;;34.80;99.90;;;;;;5042490;28;20029;-82
2022/05/13 09:39:44;;;;;;;4.72;1.40;;;34.20;99.90;;;;;;5034356;28;20021;-82
2022/05/13 09:42:23;;;;;;;5.10;1.60;;;35.90;99.90;;;;;;5034179;28;20026;-82
2022/05/13 09:44:51;;;;;;;5.82;1.50;;;35.90;99.90;;;;;;5033778;28;20025;-82
2022/05/13 09:47:34;;;;;;;8.35;2.00;;;36.30;99.90;;;;;;5034250;28;20076;-82
2022/05/13 09:50:00;;;;;;;5.05;1.65;;;37.70;99.90;;;;;;5016270;28;20022;-82
2022/05/13 09:52:28;;;;;;;6.85;1.75;;;37.80;99.90;;;;;;5034185;28;20026;-82
2022/05/13 09:54:56;;;;;;;5.55;1.77;;;38.50;99.90;;;;;;5033908;28;20021;-82
2022/05/13 09:57:30;;;;;;;9.60;2.22;;;38.40;99.90;;;;;;5034251;28;20628;-82
2022/05/13 10:00:03;;;;;;;7.00;1.67;;;37.20;99.90;;;;;;5034185;28;20025;-82
2022/05/13 10:02:29;;;;;;;5.63;1.67;;;36.90;99.90;;;;;;5034039;28;20025;-82
2022/05/13 10:05:11;;;;;;;4.60;1.83;;;37.30;99.90;;;;;;5033733;28;20100;-82
2022/05/13 10:07:53;;;;;;;6.90;1.50;;;37.90;99.90;;;;;;5033877;28;20021;-82
2022/05/13 10:14:00;;;;;;;6.75;2.30;;;35.40;99.90;;;;;;5039921;28;20105;-82
2022/05/13 10:16:40;;;;;;;6.97;1.77;;;33.20;99.90;;;;;;5053362;28;20021;-82
2022/05/13 10:19:26;;;;;;;7.55;1.90;;;36.10;99.90;;;;;;5051483;28;20511;-82
2022/05/13 10:22:13;;;;;;;5.85;1.90;;;33.80;99.90;;;;;;5033066;28;20057;-82
2022/05/13 10:24:51;;;;;;;4.85;1.88;;;34.10;99.90;;;;;;5032897;28;20354;-82
2022/05/13 10:27:45;;;;;;;6.53;1.90;;;33.50;99.90;;;;;;5015481;28;20107;-82
2022/05/13 10:30:21;;;;;;;5.82;1.80;;;33.70;99.90;;;;;;5032768;28;20029;-82
2022/05/13 10:33:02;;;;;;;5.90;1.60;;;34.80;99.90;;;;;;5048660;28;20109;-82
2022/05/13 10:35:38;;;;;;;5.97;1.90;;;34.50;99.90;;;;;;5053204;28;20028;-82
2022/05/13 10:38:36;;;;;;;4.07;1.80;;;34.40;99.90;;;;;;5033113;28;20049;-82
2022/05/13 10:41:28;;;;;;;5.90;1.85;;;35.10;99.90;;;;;;5017427;28;20125;-82
2022/05/13 10:43:59;;;;;;;4.00;1.60;;;36.10;99.90;;;;;;5039831;28;20495;-82
2022/05/13 10:46:53;;;;;;;9.25;2.20;;;34.60;99.90;;;;;;5053301;28;20013;-82
2022/05/13 10:49:19;;;;;;;8.93;2.33;;;34.00;99.90;;;;;;5048276;28;20048;-82
2022/05/13 10:51:56;;;;;;;6.78;1.85;;;34.20;99.90;;;;;;5053300;28;20037;-82
2022/05/13 10:54:50;;;;;;;6.38;1.92;;;30.60;99.90;;;;;;5041844;28;20047;-82
2022/05/13 10:57:40;;;;;;;8.63;2.00;;;29.40;99.90;;;;;;5050599;28;20029;-82
2022/05/13 11:00:16;;;;;;;6.25;2.00;;;28.10;99.90;;;;;;5057130;28;20068;-82
2022/05/13 11:02:48;;;;;;;3.65;1.83;;;27.40;99.90;;;;;;5048259;28;20049;-81
2022/05/13 11:05:19;;;;;;;8.13;1.90;;;26.60;99.90;;;;;;5036990;28;20040;-81
2022/05/13 11:07:56;;;;;;;5.63;2.10;;;27.10;99.90;;;;;;5056248;28;20032;-82
2022/05/13 11:10:32;;;;;;;4.38;1.38;;;26.60;99.90;;;;;;5056585;28;20021;-81
2022/05/13 11:13:11;;;;;;;6.13;2.25;;;24.80;99.90;;;;;;5056548;28;20035;-81
2022/05/13 11:16:01;;;;;;;9.00;2.50;;;24.20;99.90;;;;;;5055941;28;20032;-82
2022/05/13 11:18:38;;;;;;;;;;;23.10;99.90;;;;;;5055195;28;20392;-82
2022/05/13 11:21:23;;;;;;;5.00;1.85;;;23.50;99.90;;;;;;5056207;28;20003;-81
2022/05/13 11:27:17;;;;;;;6.45;2.45;;;23.90;99.90;;;;;;5056283;28;20032;-81
2022/05/13 11:29:52;;;;;;;6.75;1.77;;;23.90;99.90;;;;;;5055717;28;20482;-81
2022/05/13 11:32:40;;;;;;;6.93;1.77;;;23.70;99.90;;;;;;5055867;28;20036;-81
2022/05/13 11:35:15;;;;;;;8.70;1.90;;;23.70;99.90;;;;;;5055708;28;20071;-81
2022/05/13 11:37:44;;;;;;;5.07;1.40;;;24.30;99.90;;;;;;5055742;28;20021;-81
2022/05/13 11:40:24;;;;;;;8.30;1.88;;;24.40;99.90;;;;;;5055655;28;20021;-81
2022/05/13 11:43:19;;;;;;;7.05;2.17;;;24.20;99.90;;;;;;5055958;28;20492;-81
2022/05/13 11:46:16;;;;;;;6.40;1.88;;;24.10;99.90;;;;;;5048117;28;20406;-81
2022/05/13 11:48:45;;;;;;;6.90;2.00;;;24.30;99.90;;;;;;5038234;28;20078;-81
2022/05/13 11:51:15;;;;;;;8.15;2.03;;;24.70;99.90;;;;;;5051928;28;20086;-81
2022/05/13 11:53:40;;;;;;;;;;;24.80;99.90;;;;;;5056046;28;20017;-81
2022/05/13 11:56:29;;;;;;;5.95;1.60;;;24.50;99.90;;;;;;5055646;28;20293;-81
2022/05/13 11:59:09;;;;;;;7.07;1.90;;;24.00;99.90;;;;;;5055970;28;20044;-81
2022/05/13 12:01:38;;;;;;;6.50;1.75;;;24.70;99.90;;;;;;5056564;28;20096;-81
2022/05/13 12:04:12;;;;;;;6.75;1.77;;;24.60;99.90;;;;;;5055280;28;20025;-81
2022/05/13 12:06:50;;;;;;;9.40;2.13;;;24.20;99.90;;;;;;5055197;28;20096;-81
2022/05/13 12:09:22;;;;;;;8.00;2.05;;;24.70;99.90;;;;;;5054764;28;20029;-81
2022/05/13 12:12:03;;;;;;;8.38;2.10;;;25.60;99.90;;;;;;5055243;28;20436;-81
2022/05/13 12:14:34;;;;;;;5.05;2.13;;;25.40;99.90;;;;;;5055204;28;20027;-81
2022/05/13 12:17:23;;;;;;;6.78;1.85;;;24.80;99.90;;;;;;5054853;28;20021;-81
2022/05/13 12:19:57;;;;;;;7.88;1.52;;;24.40;99.90;;;;;;5055259;28;20057;-81
2022/05/13 12:22:22;;;;;;;8.02;1.60;;;24.90;99.90;;;;;;5055123;28;20540;-81
2022/05/13 12:25:34;;;;;;;4.05;1.42;;;24.50;99.90;;;;;;5055850;28;20107;-80
2022/05/13 12:28:10;;;;;;;6.22;1.77;;;24.30;99.90;;;;;;5021411;28;20034;-80
2022/05/13 12:30:41;;;;;;;4.97;1.55;;;24.50;99.90;;;;;;5035472;28;20056;-81
2022/05/13 12:33:24;;;;;;;5.85;1.42;;;24.90;99.90;;;;;;5051537;28;20029;-82
2022/05/13 12:39:00;;;;;;;5.85;1.30;;;23.70;99.90;;;;;;5037455;28;20071;-81
2022/05/13 12:41:58;;;;;;;8.60;2.55;;;23.70;99.90;;;;;;5052609;28;20109;-80
2022/05/13 12:44:40;;;;;;;5.72;1.70;;;23.70;99.90;;;;;;5030158;28;20497;-80
2022/05/13 12:47:15;;;;;;;4.18;1.52;;;23.70;99.90;;;;;;5034910;28;20480;-80
2022/05/13 12:50:01;;;;;;;4.53;1.52;;;23.30;99.90;;;;;;5034516;28;20021;-80
2022/05/13 12:52:27;;;;;;;6.85;1.67;;;23.10;99.90;;;;;;5034548;28;20641;-81
2022/05/13 12:55:19;;;;;;;8.77;2.10;;;24.30;99.90;;;;;;5034866;28;20028;-80
2022/05/13 12:57:55;;;;;;;6.40;1.77;;;23.20;99.90;;;;;;5034784;28;20021;-80
2022/05/13 13:00:33;;;;;;;7.18;1.85;;;23.60;99.90;;;;;;5034316;28;20384;-80
2022/05/13 13:03:14;;;;;;;8.45;2.13;;;23.80;99.90;;;;;;5034125;28;20021;-80
2022/05/13 13:05:45;;;;;;;6.68;1.77;;;23.70;99.90;;;;;;5034362;28;20455;-80
2022/05/13 13:08:14;;;;;;;6.72;1.80;;;23.80;99.90;;;;;;5034457;28;20353;-80
2022/05/13 13:10:50;;;;;;;7.73;1.90;;;23.70;99.90;;;;;;5034331;28;20022;-80
2022/05/13 13:13:25;;;;;;;6.75;1.88;;;24.50;99.90;;;;;;5034212;28;20029;-80
2022/05/13 13:15:56;;;;;;;6.85;1.73;;;23.70;99.90;;;;;;5034096;28;20035;-80
2022/05/13 13:18:34;;;;;;;7.13;2.40;;;23.70;99.90;;;;;;5033663;28;20127;-80
2022/05/13 13:21:09;;;;;;;7.32;2.03;;;23.90;99.90;;;;;;5033341;28;20128;-80
2022/05/13 13:23:44;;;;;;;8.48;2.60;;;23.60;99.90;;;;;;5034202;28;20100;-80
2022/05/13 13:26:13;;;;;;;6.43;2.35;;;23.10;99.90;;;;;;5033030;28;20036;-80
2022/05/13 13:28:40;;;;;;;7.10;1.65;;;23.30;99.90;;;;;;5034363;28;20032;-81
2022/05/13 13:31:11;;;;;;;7.40;2.30;;;24.00;99.90;;;;;;5034028;28;20052;-80
2022/05/13 13:33:46;;;;;;;6.55;1.80;;;24.20;99.90;;;;;;5033522;28;20366;-80
2022/05/13 13:36:14;;;;;;;6.75;2.13;;;23.50;99.90;;;;;;5033747;28;20030;-80
2022/05/13 13:38:47;;;;;;;5.93;1.77;;;23.60;99.90;;;;;;5032059;28;20396;-81
2022/05/13 13:41:31;;;;;;;9.75;2.25;;;24.30;99.90;;;;;;5033419;28;20060;-80
2022/05/13 13:43:58;;;;;;;5.75;1.80;;;23.80;99.90;;;;;;5033775;28;20448;-80
2022/05/13 13:46:30;;;;;;;9.20;2.20;;;23.50;99.90;;;;;;5033503;28;20021;-80
2022/05/13 13:49:00;;;;;;;7.18;2.35;;;23.20;99.90;;;;;;5033411;28;20025;-80
2022/05/13 13:51:27;;;;;;;8.93;2.28;;;22.70;99.90;;;;;;5033679;28;20025;-79